Terminal Aerodrome Forecast
Issued by NWS

Home | Current Version | Previous Version | Text Only | Print | Product List | Glossary On
Versions: 1 2 3 4 5 6 7 8 9 10 11 12 13 14 15 16 17
000
FTUS44 KOHX 271900 AAA
TAFCKV
TAF AMD
KCKV 271941Z 2720/2818 06008KT P6SM SCT030 BKN100
     FM280200 02005KT P6SM OVC080=

USA.gov is the U.S. government's official web portal to all federal, state and local government web resources and services.